sensor_id;sensor_type;location;lat;lon;timestamp;temperature;humidity
58554;DHT22;48119;53.218;6.576;2023-07-13T00:00:35;20.50;94.60
58554;DHT22;48119;53.218;6.576;2023-07-13T00:03:02;20.50;94.70
58554;DHT22;48119;53.218;6.576;2023-07-13T00:05:28;20.50;94.70
58554;DHT22;48119;53.218;6.576;2023-07-13T00:07:56;20.40;94.70
58554;DHT22;48119;53.218;6.576;2023-07-13T00:10:22;20.40;94.80
58554;DHT22;48119;53.218;6.576;2023-07-13T00:12:51;20.40;94.80
58554;DHT22;48119;53.218;6.576;2023-07-13T00:15:24;20.40;94.80
58554;DHT22;48119;53.218;6.576;2023-07-13T00:17:52;20.40;94.80
58554;DHT22;48119;53.218;6.576;2023-07-13T00:20:19;20.40;94.80
58554;DHT22;48119;53.218;6.576;2023-07-13T00:22:48;20.30;94.80
58554;DHT22;48119;53.218;6.576;2023-07-13T00:25:15;20.30;94.90
58554;DHT22;48119;53.218;6.576;2023-07-13T00:27:42;20.30;95.00
58554;DHT22;48119;53.218;6.576;2023-07-13T00:30:08;20.30;95.00
58554;DHT22;48119;53.218;6.576;2023-07-13T00:32:34;20.30;95.00
58554;DHT22;48119;53.218;6.576;2023-07-13T00:35:01;20.30;95.00
58554;DHT22;48119;53.218;6.576;2023-07-13T00:37:29;20.30;95.10
58554;DHT22;48119;53.218;6.576;2023-07-13T00:39:54;20.30;95.10
58554;DHT22;48119;53.218;6.576;2023-07-13T00:42:20;20.30;95.20
58554;DHT22;48119;53.218;6.576;2023-07-13T00:45:06;20.20;95.20
58554;DHT22;48119;53.218;6.576;2023-07-13T00:47:33;20.30;95.40
58554;DHT22;48119;53.218;6.576;2023-07-13T00:49:59;20.20;95.40
58554;DHT22;48119;53.218;6.576;2023-07-13T00:52:25;20.20;95.50
58554;DHT22;48119;53.218;6.576;2023-07-13T00:54:51;20.20;95.50
58554;DHT22;48119;53.218;6.576;2023-07-13T00:57:19;20.20;95.60
58554;DHT22;48119;53.218;6.576;2023-07-13T00:59:50;20.20;95.60
58554;DHT22;48119;53.218;6.576;2023-07-13T01:02:17;20.20;95.70
58554;DHT22;48119;53.218;6.576;2023-07-13T01:04:43;20.10;95.80
58554;DHT22;48119;53.218;6.576;2023-07-13T01:07:09;20.10;95.90
58554;DHT22;48119;53.218;6.576;2023-07-13T01:09:36;20.20;96.00
58554;DHT22;48119;53.218;6.576;2023-07-13T01:12:02;20.20;95.90
58554;DHT22;48119;53.218;6.576;2023-07-13T01:14:28;20.20;96.00
58554;DHT22;48119;53.218;6.576;2023-07-13T01:16:54;20.20;96.00
58554;DHT22;48119;53.218;6.576;2023-07-13T01:19:44;20.10;96.10
58554;DHT22;48119;53.218;6.576;2023-07-13T01:22:15;20.10;96.10
58554;DHT22;48119;53.218;6.576;2023-07-13T01:24:43;20.10;96.20
58554;DHT22;48119;53.218;6.576;2023-07-13T01:27:11;20.00;96.30
58554;DHT22;48119;53.218;6.576;2023-07-13T01:29:39;20.00;96.40
58554;DHT22;48119;53.218;6.576;2023-07-13T01:32:15;20.00;96.40
58554;DHT22;48119;53.218;6.576;2023-07-13T01:34:41;20.00;96.50
58554;DHT22;48119;53.218;6.576;2023-07-13T01:37:11;20.00;96.50
58554;DHT22;48119;53.218;6.576;2023-07-13T01:39:37;20.00;96.60
58554;DHT22;48119;53.218;6.576;2023-07-13T01:42:03;20.00;96.70
58554;DHT22;48119;53.218;6.576;2023-07-13T01:44:29;20.00;96.70
58554;DHT22;48119;53.218;6.576;2023-07-13T01:46:55;20.00;96.80
58554;DHT22;48119;53.218;6.576;2023-07-13T01:49:21;19.90;96.80
58554;DHT22;48119;53.218;6.576;2023-07-13T01:51:47;19.90;96.90
58554;DHT22;48119;53.218;6.576;2023-07-13T01:54:12;19.90;96.90
58554;DHT22;48119;53.218;6.576;2023-07-13T01:56:38;19.90;96.90
58554;DHT22;48119;53.218;6.576;2023-07-13T01:59:05;19.90;97.00
58554;DHT22;48119;53.218;6.576;2023-07-13T02:01:31;19.90;97.10
58554;DHT22;48119;53.218;6.576;2023-07-13T02:03:56;19.90;97.00
58554;DHT22;48119;53.218;6.576;2023-07-13T02:06:22;19.90;97.20
58554;DHT22;48119;53.218;6.576;2023-07-13T02:08:48;19.90;97.20
58554;DHT22;48119;53.218;6.576;2023-07-13T02:11:14;19.90;97.30
58554;DHT22;48119;53.218;6.576;2023-07-13T02:13:39;19.90;97.30
58554;DHT22;48119;53.218;6.576;2023-07-13T02:16:05;19.90;97.30
58554;DHT22;48119;53.218;6.576;2023-07-13T02:18:32;19.90;97.40
58554;DHT22;48119;53.218;6.576;2023-07-13T02:20:57;19.90;97.40
58554;DHT22;48119;53.218;6.576;2023-07-13T02:23:23;19.90;97.40
58554;DHT22;48119;53.218;6.576;2023-07-13T02:25:49;19.90;97.50
58554;DHT22;48119;53.218;6.576;2023-07-13T02:28:15;19.80;97.50
58554;DHT22;48119;53.218;6.576;2023-07-13T02:30:40;19.80;97.50
58554;DHT22;48119;53.218;6.576;2023-07-13T02:33:06;19.80;97.50
58554;DHT22;48119;53.218;6.576;2023-07-13T02:35:32;19.80;97.50
58554;DHT22;48119;53.218;6.576;2023-07-13T02:37:58;19.80;97.50
58554;DHT22;48119;53.218;6.576;2023-07-13T02:40:23;19.80;97.80
58554;DHT22;48119;53.218;6.576;2023-07-13T02:42:49;19.80;97.50
58554;DHT22;48119;53.218;6.576;2023-07-13T02:45:15;19.80;97.50
58554;DHT22;48119;53.218;6.576;2023-07-13T02:47:41;19.80;97.60
58554;DHT22;48119;53.218;6.576;2023-07-13T02:50:08;19.80;97.60
58554;DHT22;48119;53.218;6.576;2023-07-13T02:52:34;19.80;97.70
58554;DHT22;48119;53.218;6.576;2023-07-13T02:55:00;19.80;97.70
58554;DHT22;48119;53.218;6.576;2023-07-13T02:57:26;19.80;97.80
58554;DHT22;48119;53.218;6.576;2023-07-13T02:59:53;19.80;98.00
58554;DHT22;48119;53.218;6.576;2023-07-13T03:02:19;19.80;98.10
58554;DHT22;48119;53.218;6.576;2023-07-13T03:04:45;19.70;98.20
58554;DHT22;48119;53.218;6.576;2023-07-13T03:07:11;19.70;98.30
58554;DHT22;48119;53.218;6.576;2023-07-13T03:09:39;19.70;98.50
58554;DHT22;48119;53.218;6.576;2023-07-13T03:12:05;19.70;98.70
58554;DHT22;48119;53.218;6.576;2023-07-13T03:14:32;19.70;98.80
58554;DHT22;48119;53.218;6.576;2023-07-13T03:16:57;19.70;98.90
58554;DHT22;48119;53.218;6.576;2023-07-13T03:19:23;19.70;99.10
58554;DHT22;48119;53.218;6.576;2023-07-13T03:21:52;19.60;99.20
58554;DHT22;48119;53.218;6.576;2023-07-13T03:24:17;19.60;99.30
58554;DHT22;48119;53.218;6.576;2023-07-13T03:26:43;19.60;99.40
58554;DHT22;48119;53.218;6.576;2023-07-13T03:29:09;19.60;99.50
58554;DHT22;48119;53.218;6.576;2023-07-13T03:31:36;19.60;99.60
58554;DHT22;48119;53.218;6.576;2023-07-13T03:34:03;19.60;99.60
58554;DHT22;48119;53.218;6.576;2023-07-13T03:36:30;19.60;99.60
58554;DHT22;48119;53.218;6.576;2023-07-13T03:38:59;19.60;99.60
58554;DHT22;48119;53.218;6.576;2023-07-13T03:41:25;19.60;99.70
58554;DHT22;48119;53.218;6.576;2023-07-13T03:43:54;19.60;99.70
58554;DHT22;48119;53.218;6.576;2023-07-13T03:46:20;19.50;99.70
58554;DHT22;48119;53.218;6.576;2023-07-13T03:48:47;19.50;99.80
58554;DHT22;48119;53.218;6.576;2023-07-13T03:51:14;19.50;99.80
58554;DHT22;48119;53.218;6.576;2023-07-13T03:53:42;19.50;99.80
58554;DHT22;48119;53.218;6.576;2023-07-13T03:56:09;19.50;99.80
58554;DHT22;48119;53.218;6.576;2023-07-13T03:58:38;19.50;99.80
58554;DHT22;48119;53.218;6.576;2023-07-13T04:01:06;19.50;99.90
58554;DHT22;48119;53.218;6.576;2023-07-13T04:03:32;19.50;99.90
58554;DHT22;48119;53.218;6.576;2023-07-13T04:06:00;19.40;99.90
58554;DHT22;48119;53.218;6.576;2023-07-13T04:08:31;19.40;99.90
58554;DHT22;48119;53.218;6.576;2023-07-13T04:10:57;19.50;99.90
58554;DHT22;48119;53.218;6.576;2023-07-13T04:13:24;19.40;99.90
58554;DHT22;48119;53.218;6.576;2023-07-13T04:15:50;19.40;99.90
58554;DHT22;48119;53.218;6.576;2023-07-13T04:18:17;19.40;99.90
58554;DHT22;48119;53.218;6.576;2023-07-13T04:20:43;19.40;99.90
58554;DHT22;48119;53.218;6.576;2023-07-13T04:23:09;19.40;99.90
58554;DHT22;48119;53.218;6.576;2023-07-13T04:25:35;19.40;99.90
58554;DHT22;48119;53.218;6.576;2023-07-13T04:28:02;19.40;99.90
58554;DHT22;48119;53.218;6.576;2023-07-13T04:30:28;19.40;99.90
58554;DHT22;48119;53.218;6.576;2023-07-13T04:32:54;19.40;99.90
58554;DHT22;48119;53.218;6.576;2023-07-13T04:35:20;19.40;99.90
58554;DHT22;48119;53.218;6.576;2023-07-13T04:37:48;19.40;99.90
58554;DHT22;48119;53.218;6.576;2023-07-13T04:40:17;19.30;99.90
58554;DHT22;48119;53.218;6.576;2023-07-13T04:42:43;19.30;99.90
58554;DHT22;48119;53.218;6.576;2023-07-13T04:45:09;19.40;99.90
58554;DHT22;48119;53.218;6.576;2023-07-13T04:47:35;19.40;99.90
58554;DHT22;48119;53.218;6.576;2023-07-13T04:50:01;19.40;99.90
58554;DHT22;48119;53.218;6.576;2023-07-13T04:52:27;19.40;99.90
58554;DHT22;48119;53.218;6.576;2023-07-13T04:54:53;19.30;99.90
58554;DHT22;48119;53.218;6.576;2023-07-13T04:57:18;19.30;99.90
58554;DHT22;48119;53.218;6.576;2023-07-13T04:59:44;19.30;99.90
58554;DHT22;48119;53.218;6.576;2023-07-13T05:02:10;19.40;99.90
58554;DHT22;48119;53.218;6.576;2023-07-13T05:04:36;19.30;99.90
58554;DHT22;48119;53.218;6.576;2023-07-13T05:07:02;19.30;99.90
58554;DHT22;48119;53.218;6.576;2023-07-13T05:09:29;19.30;99.90
58554;DHT22;48119;53.218;6.576;2023-07-13T05:11:55;19.40;99.90
58554;DHT22;48119;53.218;6.576;2023-07-13T05:14:20;19.40;99.90
58554;DHT22;48119;53.218;6.576;2023-07-13T05:16:46;19.40;99.90
58554;DHT22;48119;53.218;6.576;2023-07-13T05:19:12;19.50;99.90
58554;DHT22;48119;53.218;6.576;2023-07-13T05:21:38;19.50;99.90
58554;DHT22;48119;53.218;6.576;2023-07-13T05:24:04;19.40;99.90
58554;DHT22;48119;53.218;6.576;2023-07-13T05:26:30;19.50;99.90
58554;DHT22;48119;53.218;6.576;2023-07-13T05:28:56;19.50;99.90
58554;DHT22;48119;53.218;6.576;2023-07-13T05:31:22;19.50;99.90
58554;DHT22;48119;53.218;6.576;2023-07-13T05:33:47;19.50;99.90
58554;DHT22;48119;53.218;6.576;2023-07-13T05:36:13;19.50;99.90
58554;DHT22;48119;53.218;6.576;2023-07-13T05:38:39;19.50;99.90
58554;DHT22;48119;53.218;6.576;2023-07-13T05:41:06;19.60;99.90
58554;DHT22;48119;53.218;6.576;2023-07-13T05:43:32;19.60;99.90
58554;DHT22;48119;53.218;6.576;2023-07-13T05:45:58;19.60;99.90
58554;DHT22;48119;53.218;6.576;2023-07-13T05:48:24;19.60;99.90
58554;DHT22;48119;53.218;6.576;2023-07-13T05:50:50;19.70;99.90
58554;DHT22;48119;53.218;6.576;2023-07-13T05:53:15;19.60;99.90
58554;DHT22;48119;53.218;6.576;2023-07-13T05:55:43;19.70;99.90
58554;DHT22;48119;53.218;6.576;2023-07-13T05:58:09;19.70;99.90
58554;DHT22;48119;53.218;6.576;2023-07-13T06:00:35;19.70;99.90
58554;DHT22;48119;53.218;6.576;2023-07-13T06:03:00;19.80;99.90
58554;DHT22;48119;53.218;6.576;2023-07-13T06:05:27;19.80;99.90
58554;DHT22;48119;53.218;6.576;2023-07-13T06:07:54;19.80;99.90
58554;DHT22;48119;53.218;6.576;2023-07-13T06:10:20;19.90;99.90
58554;DHT22;48119;53.218;6.576;2023-07-13T06:12:46;19.90;99.90
58554;DHT22;48119;53.218;6.576;2023-07-13T06:15:12;20.00;99.90
58554;DHT22;48119;53.218;6.576;2023-07-13T06:17:38;20.00;99.90
58554;DHT22;48119;53.218;6.576;2023-07-13T06:20:04;20.00;99.90
58554;DHT22;48119;53.218;6.576;2023-07-13T06:22:30;20.10;99.90
58554;DHT22;48119;53.218;6.576;2023-07-13T06:24:55;20.10;99.90
58554;DHT22;48119;53.218;6.576;2023-07-13T06:27:22;20.10;99.90
58554;DHT22;48119;53.218;6.576;2023-07-13T06:29:48;20.10;99.90
58554;DHT22;48119;53.218;6.576;2023-07-13T06:32:14;20.20;99.90
58554;DHT22;48119;53.218;6.576;2023-07-13T06:34:40;20.20;99.90
58554;DHT22;48119;53.218;6.576;2023-07-13T06:37:06;20.20;99.90
58554;DHT22;48119;53.218;6.576;2023-07-13T06:39:32;20.20;99.90
58554;DHT22;48119;53.218;6.576;2023-07-13T06:41:58;20.20;99.90
58554;DHT22;48119;53.218;6.576;2023-07-13T06:44:24;20.20;99.90
58554;DHT22;48119;53.218;6.576;2023-07-13T06:46:49;20.20;99.90
58554;DHT22;48119;53.218;6.576;2023-07-13T06:49:15;20.20;99.90
58554;DHT22;48119;53.218;6.576;2023-07-13T06:51:44;20.20;99.90
58554;DHT22;48119;53.218;6.576;2023-07-13T06:54:10;20.30;99.80
58554;DHT22;48119;53.218;6.576;2023-07-13T06:56:35;20.30;99.60
58554;DHT22;48119;53.218;6.576;2023-07-13T06:59:01;20.30;99.40
58554;DHT22;48119;53.218;6.576;2023-07-13T07:01:27;20.30;99.20
58554;DHT22;48119;53.218;6.576;2023-07-13T07:03:52;20.40;99.20
58554;DHT22;48119;53.218;6.576;2023-07-13T07:06:20;20.40;99.20
58554;DHT22;48119;53.218;6.576;2023-07-13T07:08:49;20.40;99.10
58554;DHT22;48119;53.218;6.576;2023-07-13T07:11:24;20.40;99.00
58554;DHT22;48119;53.218;6.576;2023-07-13T07:13:51;20.50;98.90
58554;DHT22;48119;53.218;6.576;2023-07-13T07:16:18;20.50;98.80
58554;DHT22;48119;53.218;6.576;2023-07-13T07:18:44;20.50;98.80
58554;DHT22;48119;53.218;6.576;2023-07-13T07:21:10;20.50;98.80
58554;DHT22;48119;53.218;6.576;2023-07-13T07:23:36;20.60;98.80
58554;DHT22;48119;53.218;6.576;2023-07-13T07:26:05;20.60;98.80
58554;DHT22;48119;53.218;6.576;2023-07-13T07:28:31;20.60;98.70
58554;DHT22;48119;53.218;6.576;2023-07-13T07:30:58;20.60;98.80
58554;DHT22;48119;53.218;6.576;2023-07-13T07:33:27;20.50;98.70
58554;DHT22;48119;53.218;6.576;2023-07-13T07:35:53;20.50;98.40
58554;DHT22;48119;53.218;6.576;2023-07-13T07:38:18;20.50;98.30
58554;DHT22;48119;53.218;6.576;2023-07-13T07:40:44;20.50;98.20
58554;DHT22;48119;53.218;6.576;2023-07-13T07:43:11;20.50;98.10
58554;DHT22;48119;53.218;6.576;2023-07-13T07:45:38;20.50;98.30
58554;DHT22;48119;53.218;6.576;2023-07-13T07:48:05;20.50;98.00
58554;DHT22;48119;53.218;6.576;2023-07-13T07:50:31;20.50;98.10
58554;DHT22;48119;53.218;6.576;2023-07-13T07:52:57;20.60;98.30
58554;DHT22;48119;53.218;6.576;2023-07-13T07:55:24;20.60;98.50
58554;DHT22;48119;53.218;6.576;2023-07-13T07:57:51;20.60;98.60
58554;DHT22;48119;53.218;6.576;2023-07-13T08:00:17;20.60;98.70
58554;DHT22;48119;53.218;6.576;2023-07-13T08:02:43;20.70;98.70
58554;DHT22;48119;53.218;6.576;2023-07-13T08:05:10;20.60;98.70
58554;DHT22;48119;53.218;6.576;2023-07-13T08:07:37;20.60;98.90
58554;DHT22;48119;53.218;6.576;2023-07-13T08:10:04;20.60;99.00
58554;DHT22;48119;53.218;6.576;2023-07-13T08:12:33;20.60;99.10
58554;DHT22;48119;53.218;6.576;2023-07-13T08:14:59;20.60;98.80
58554;DHT22;48119;53.218;6.576;2023-07-13T08:17:26;20.50;98.00
58554;DHT22;48119;53.218;6.576;2023-07-13T08:19:52;20.50;97.30
58554;DHT22;48119;53.218;6.576;2023-07-13T08:22:18;20.40;96.80
58554;DHT22;48119;53.218;6.576;2023-07-13T08:24:43;20.40;96.40
58554;DHT22;48119;53.218;6.576;2023-07-13T08:27:11;20.40;96.20
58554;DHT22;48119;53.218;6.576;2023-07-13T08:29:37;20.50;96.30
58554;DHT22;48119;53.218;6.576;2023-07-13T08:32:05;20.40;96.40
58554;DHT22;48119;53.218;6.576;2023-07-13T08:34:32;20.50;96.70
58554;DHT22;48119;53.218;6.576;2023-07-13T08:36:58;20.50;97.10
58554;DHT22;48119;53.218;6.576;2023-07-13T08:39:24;20.50;97.60
58554;DHT22;48119;53.218;6.576;2023-07-13T08:41:53;20.60;98.10
58554;DHT22;48119;53.218;6.576;2023-07-13T08:44:32;20.60;98.60
58554;DHT22;48119;53.218;6.576;2023-07-13T08:47:04;20.60;99.00
58554;DHT22;48119;53.218;6.576;2023-07-13T08:49:32;20.60;99.10
58554;DHT22;48119;53.218;6.576;2023-07-13T08:52:03;20.70;99.10
58554;DHT22;48119;53.218;6.576;2023-07-13T08:54:45;20.70;98.80
58554;DHT22;48119;53.218;6.576;2023-07-13T08:57:17;20.70;98.60
58554;DHT22;48119;53.218;6.576;2023-07-13T08:59:43;20.80;98.50
58554;DHT22;48119;53.218;6.576;2023-07-13T09:02:39;20.80;98.10
58554;DHT22;48119;53.218;6.576;2023-07-13T09:05:13;20.90;97.80
58554;DHT22;48119;53.218;6.576;2023-07-13T09:10:45;21.00;97.70
58554;DHT22;48119;53.218;6.576;2023-07-13T09:15:51;21.00;97.20
58554;DHT22;48119;53.218;6.576;2023-07-13T09:18:32;21.00;97.00
58554;DHT22;48119;53.218;6.576;2023-07-13T09:21:03;21.00;96.70
58554;DHT22;48119;53.218;6.576;2023-07-13T09:23:31;20.90;96.60
58554;DHT22;48119;53.218;6.576;2023-07-13T09:28:46;21.00;96.60
58554;DHT22;48119;53.218;6.576;2023-07-13T09:31:47;21.10;96.50
58554;DHT22;48119;53.218;6.576;2023-07-13T09:34:14;21.10;96.20
58554;DHT22;48119;53.218;6.576;2023-07-13T09:36:40;21.10;96.10
58554;DHT22;48119;53.218;6.576;2023-07-13T09:42:06;21.30;95.80
58554;DHT22;48119;53.218;6.576;2023-07-13T09:44:36;21.30;95.70
58554;DHT22;48119;53.218;6.576;2023-07-13T09:47:03;21.40;95.70
58554;DHT22;48119;53.218;6.576;2023-07-13T09:49:37;21.40;95.70
58554;DHT22;48119;53.218;6.576;2023-07-13T09:52:06;21.40;95.50
58554;DHT22;48119;53.218;6.576;2023-07-13T09:54:36;21.50;95.50
58554;DHT22;48119;53.218;6.576;2023-07-13T09:57:03;21.40;95.20
58554;DHT22;48119;53.218;6.576;2023-07-13T09:59:32;21.50;95.10
58554;DHT22;48119;53.218;6.576;2023-07-13T10:01:58;21.50;94.80
58554;DHT22;48119;53.218;6.576;2023-07-13T10:04:32;21.50;94.60
58554;DHT22;48119;53.218;6.576;2023-07-13T10:07:09;21.40;94.40
58554;DHT22;48119;53.218;6.576;2023-07-13T10:09:38;21.40;94.00
58554;DHT22;48119;53.218;6.576;2023-07-13T10:12:14;21.40;93.80
58554;DHT22;48119;53.218;6.576;2023-07-13T10:14:41;21.30;93.10
58554;DHT22;48119;53.218;6.576;2023-07-13T10:17:12;21.30;93.20
58554;DHT22;48119;53.218;6.576;2023-07-13T10:19:39;21.30;92.90
58554;DHT22;48119;53.218;6.576;2023-07-13T10:22:31;21.30;92.80
58554;DHT22;48119;53.218;6.576;2023-07-13T10:24:59;21.40;92.60
58554;DHT22;48119;53.218;6.576;2023-07-13T10:27:34;21.50;92.60
58554;DHT22;48119;53.218;6.576;2023-07-13T10:30:21;21.50;92.60
58554;DHT22;48119;53.218;6.576;2023-07-13T10:32:49;21.60;92.70
58554;DHT22;48119;53.218;6.576;2023-07-13T10:35:19;21.60;92.60
58554;DHT22;48119;53.218;6.576;2023-07-13T10:37:57;21.60;92.50
58554;DHT22;48119;53.218;6.576;2023-07-13T10:43:22;21.70;92.20
58554;DHT22;48119;53.218;6.576;2023-07-13T10:45:51;21.70;91.80
58554;DHT22;48119;53.218;6.576;2023-07-13T10:48:17;21.70;91.60
58554;DHT22;48119;53.218;6.576;2023-07-13T10:50:46;21.70;91.70
58554;DHT22;48119;53.218;6.576;2023-07-13T10:53:42;21.70;91.80
58554;DHT22;48119;53.218;6.576;2023-07-13T10:58:43;21.70;91.70
58554;DHT22;48119;53.218;6.576;2023-07-13T11:06:13;21.90;91.80
58554;DHT22;48119;53.218;6.576;2023-07-13T11:21:29;22.20;91.20
58554;DHT22;48119;53.218;6.576;2023-07-13T11:26:44;22.20;91.10
58554;DHT22;48119;53.218;6.576;2023-07-13T11:31:59;22.30;90.60
58554;DHT22;48119;53.218;6.576;2023-07-13T11:34:31;22.40;90.10
58554;DHT22;48119;53.218;6.576;2023-07-13T11:36:59;22.40;90.00
58554;DHT22;48119;53.218;6.576;2023-07-13T11:39:32;22.40;90.10
58554;DHT22;48119;53.218;6.576;2023-07-13T11:42:05;22.50;90.20
58554;DHT22;48119;53.218;6.576;2023-07-13T11:44:33;22.50;90.30
58554;DHT22;48119;53.218;6.576;2023-07-13T11:47:10;22.50;90.50
58554;DHT22;48119;53.218;6.576;2023-07-13T11:49:43;22.50;90.40
58554;DHT22;48119;53.218;6.576;2023-07-13T11:52:14;22.50;90.00
58554;DHT22;48119;53.218;6.576;2023-07-13T11:54:57;22.50;89.40
58554;DHT22;48119;53.218;6.576;2023-07-13T11:57:29;22.50;89.60
58554;DHT22;48119;53.218;6.576;2023-07-13T11:59:58;22.50;89.30
58554;DHT22;48119;53.218;6.576;2023-07-13T12:02:38;22.60;90.00
58554;DHT22;48119;53.218;6.576;2023-07-13T12:05:05;22.60;89.40
58554;DHT22;48119;53.218;6.576;2023-07-13T12:07:33;22.60;89.10
58554;DHT22;48119;53.218;6.576;2023-07-13T12:12:35;22.60;88.80
58554;DHT22;48119;53.218;6.576;2023-07-13T12:15:14;22.60;88.50
58554;DHT22;48119;53.218;6.576;2023-07-13T12:17:41;22.60;88.60
58554;DHT22;48119;53.218;6.576;2023-07-13T12:20:26;22.60;88.70
58554;DHT22;48119;53.218;6.576;2023-07-13T12:22:53;22.70;88.70
58554;DHT22;48119;53.218;6.576;2023-07-13T12:25:20;22.80;87.90
58554;DHT22;48119;53.218;6.576;2023-07-13T12:27:51;22.80;87.50
58554;DHT22;48119;53.218;6.576;2023-07-13T12:30:27;22.80;87.50
58554;DHT22;48119;53.218;6.576;2023-07-13T12:33:07;22.80;87.30
58554;DHT22;48119;53.218;6.576;2023-07-13T12:35:47;22.70;87.20
58554;DHT22;48119;53.218;6.576;2023-07-13T12:38:13;22.70;87.60
58554;DHT22;48119;53.218;6.576;2023-07-13T12:40:40;22.70;87.70
58554;DHT22;48119;53.218;6.576;2023-07-13T12:43:11;22.60;86.60
58554;DHT22;48119;53.218;6.576;2023-07-13T12:45:37;22.60;86.20
58554;DHT22;48119;53.218;6.576;2023-07-13T12:48:22;22.60;87.80
58554;DHT22;48119;53.218;6.576;2023-07-13T12:50:49;22.60;88.90
58554;DHT22;48119;53.218;6.576;2023-07-13T12:53:21;22.50;88.70
58554;DHT22;48119;53.218;6.576;2023-07-13T12:55:54;22.50;88.90
58554;DHT22;48119;53.218;6.576;2023-07-13T13:00:55;22.50;89.00
58554;DHT22;48119;53.218;6.576;2023-07-13T13:03:33;22.50;89.40
58554;DHT22;48119;53.218;6.576;2023-07-13T13:06:04;22.50;89.80
58554;DHT22;48119;53.218;6.576;2023-07-13T13:08:32;22.50;90.00
58554;DHT22;48119;53.218;6.576;2023-07-13T13:10:58;22.60;90.20
58554;DHT22;48119;53.218;6.576;2023-07-13T13:13:24;22.50;90.10
58554;DHT22;48119;53.218;6.576;2023-07-13T13:15:50;22.60;90.00
58554;DHT22;48119;53.218;6.576;2023-07-13T13:18:25;22.60;90.00
58554;DHT22;48119;53.218;6.576;2023-07-13T13:20:51;22.60;90.30
58554;DHT22;48119;53.218;6.576;2023-07-13T13:23:19;22.60;90.10
58554;DHT22;48119;53.218;6.576;2023-07-13T13:25:50;22.60;90.20
58554;DHT22;48119;53.218;6.576;2023-07-13T13:28:18;22.60;90.40
58554;DHT22;48119;53.218;6.576;2023-07-13T13:30:46;22.60;90.30
58554;DHT22;48119;53.218;6.576;2023-07-13T13:33:16;22.70;89.70
58554;DHT22;48119;53.218;6.576;2023-07-13T13:35:43;22.60;88.80
58554;DHT22;48119;53.218;6.576;2023-07-13T13:38:16;22.70;89.00
58554;DHT22;48119;53.218;6.576;2023-07-13T13:40:44;22.70;89.70
58554;DHT22;48119;53.218;6.576;2023-07-13T13:43:26;22.70;90.10
58554;DHT22;48119;53.218;6.576;2023-07-13T13:45:55;22.70;90.50
58554;DHT22;48119;53.218;6.576;2023-07-13T13:48:33;22.70;90.40
58554;DHT22;48119;53.218;6.576;2023-07-13T13:51:01;22.70;90.80
58554;DHT22;48119;53.218;6.576;2023-07-13T13:53:29;22.60;90.50
58554;DHT22;48119;53.218;6.576;2023-07-13T13:55:55;22.60;90.70
58554;DHT22;48119;53.218;6.576;2023-07-13T13:58:21;22.60;90.80
58554;DHT22;48119;53.218;6.576;2023-07-13T14:00:48;22.60;90.60
58554;DHT22;48119;53.218;6.576;2023-07-13T14:03:19;22.60;90.50
58554;DHT22;48119;53.218;6.576;2023-07-13T14:05:46;22.70;90.20
58554;DHT22;48119;53.218;6.576;2023-07-13T14:08:17;22.70;89.90
58554;DHT22;48119;53.218;6.576;2023-07-13T14:10:51;22.60;89.10
58554;DHT22;48119;53.218;6.576;2023-07-13T14:13:28;22.60;88.90
58554;DHT22;48119;53.218;6.576;2023-07-13T14:15:56;22.70;89.30
58554;DHT22;48119;53.218;6.576;2023-07-13T14:18:22;22.70;89.60
58554;DHT22;48119;53.218;6.576;2023-07-13T14:20:49;22.70;89.90
58554;DHT22;48119;53.218;6.576;2023-07-13T14:23:17;22.70;89.00
58554;DHT22;48119;53.218;6.576;2023-07-13T14:25:45;22.70;88.90
58554;DHT22;48119;53.218;6.576;2023-07-13T14:28:31;22.80;88.50
58554;DHT22;48119;53.218;6.576;2023-07-13T14:30:57;22.80;88.10
58554;DHT22;48119;53.218;6.576;2023-07-13T14:33:23;22.70;88.20
58554;DHT22;48119;53.218;6.576;2023-07-13T14:35:50;22.70;89.60
58554;DHT22;48119;53.218;6.576;2023-07-13T14:38:18;22.80;89.80
58554;DHT22;48119;53.218;6.576;2023-07-13T14:40:45;22.80;89.40
58554;DHT22;48119;53.218;6.576;2023-07-13T14:43:16;22.80;89.40
58554;DHT22;48119;53.218;6.576;2023-07-13T14:45:44;22.80;89.00
58554;DHT22;48119;53.218;6.576;2023-07-13T14:48:22;22.80;88.90
58554;DHT22;48119;53.218;6.576;2023-07-13T14:50:54;22.80;89.10
58554;DHT22;48119;53.218;6.576;2023-07-13T14:53:20;22.80;89.10
58554;DHT22;48119;53.218;6.576;2023-07-13T14:55:46;22.80;89.10
58554;DHT22;48119;53.218;6.576;2023-07-13T14:58:12;22.80;89.40
58554;DHT22;48119;53.218;6.576;2023-07-13T15:00:39;22.80;89.60
58554;DHT22;48119;53.218;6.576;2023-07-13T15:03:23;22.80;89.50
58554;DHT22;48119;53.218;6.576;2023-07-13T15:05:51;22.80;89.60
58554;DHT22;48119;53.218;6.576;2023-07-13T15:08:18;22.80;89.60
58554;DHT22;48119;53.218;6.576;2023-07-13T15:10:44;22.80;89.90
58554;DHT22;48119;53.218;6.576;2023-07-13T15:13:20;22.80;89.80
58554;DHT22;48119;53.218;6.576;2023-07-13T15:15:51;22.80;89.70
58554;DHT22;48119;53.218;6.576;2023-07-13T15:18:22;22.80;89.60
58554;DHT22;48119;53.218;6.576;2023-07-13T15:20:49;22.70;89.50
58554;DHT22;48119;53.218;6.576;2023-07-13T15:23:17;22.70;89.60
58554;DHT22;48119;53.218;6.576;2023-07-13T15:25:43;22.70;89.60
58554;DHT22;48119;53.218;6.576;2023-07-13T15:28:10;22.70;89.70
58554;DHT22;48119;53.218;6.576;2023-07-13T15:30:48;22.70;89.80
58554;DHT22;48119;53.218;6.576;2023-07-13T15:33:29;22.70;90.00
58554;DHT22;48119;53.218;6.576;2023-07-13T15:35:55;22.70;90.00
58554;DHT22;48119;53.218;6.576;2023-07-13T15:38:29;22.70;89.60
58554;DHT22;48119;53.218;6.576;2023-07-13T15:40:56;22.70;89.60
58554;DHT22;48119;53.218;6.576;2023-07-13T15:43:22;22.70;89.50
58554;DHT22;48119;53.218;6.576;2023-07-13T15:45:51;22.60;89.50
58554;DHT22;48119;53.218;6.576;2023-07-13T15:48:22;22.70;89.60
58554;DHT22;48119;53.218;6.576;2023-07-13T15:50:53;22.70;89.60
58554;DHT22;48119;53.218;6.576;2023-07-13T15:53:24;22.70;89.60
58554;DHT22;48119;53.218;6.576;2023-07-13T15:55:51;22.70;89.70
58554;DHT22;48119;53.218;6.576;2023-07-13T15:58:18;22.60;89.40
58554;DHT22;48119;53.218;6.576;2023-07-13T16:00:44;22.60;89.40
58554;DHT22;48119;53.218;6.576;2023-07-13T16:03:11;22.60;89.50
58554;DHT22;48119;53.218;6.576;2023-07-13T16:05:37;22.60;89.50
58554;DHT22;48119;53.218;6.576;2023-07-13T16:08:13;22.60;89.50
58554;DHT22;48119;53.218;6.576;2023-07-13T16:10:41;22.60;89.50
58554;DHT22;48119;53.218;6.576;2023-07-13T16:13:16;22.60;89.50
58554;DHT22;48119;53.218;6.576;2023-07-13T16:15:42;22.60;89.70
58554;DHT22;48119;53.218;6.576;2023-07-13T16:18:10;22.50;89.80
58554;DHT22;48119;53.218;6.576;2023-07-13T16:20:38;22.50;89.90
58554;DHT22;48119;53.218;6.576;2023-07-13T16:23:04;22.50;90.00